Time;durP1;ratioP1;P1;durP2;ratioP2;P2;SDS_P1;SDS_P2;PMS_P1;PMS_P2;Temp;Humidity;BMP_temperature;BMP_pressure;BME280_temperature;BME280_humidity;BME280_pressure;Samples;Min_cycle;Max_cycle;Signal;HPM_P1;HPM_P2
2023/04/24 00:00:56;;;;;;;4.20;3.00;;;;;;;11.36;100.00;99809.13;4999997;28;20965;-71
2023/04/24 00:03:27;;;;;;;3.43;2.80;;;;;;;11.52;100.00;99827.25;5003857;28;20235;-71
2023/04/24 00:05:53;;;;;;;3.80;3.50;;;;;;;11.01;100.00;99740.03;4999837;28;20472;-72
2023/04/24 00:08:18;;;;;;;3.43;2.80;;;;;;;11.53;100.00;99855.75;5001700;28;20468;-71
2023/04/24 00:10:44;;;;;;;3.37;3.07;;;;;;;11.70;100.00;99863.16;4997693;28;20640;-71
2023/04/24 00:13:09;;;;;;;3.77;2.80;;;;;;;11.57;100.00;99866.88;4999966;28;20211;-71
2023/04/24 00:15:35;;;;;;;3.53;3.23;;;;;;;11.65;100.00;99871.91;5001081;28;20190;-72
2023/04/24 00:18:03;;;;;;;3.17;2.83;;;;;;;11.59;100.00;99855.88;5002031;28;20727;-71
2023/04/24 00:20:29;;;;;;;3.20;2.90;;;;;;;11.46;100.00;99849.66;5018017;23;20237;-71
2023/04/24 00:22:55;;;;;;;3.13;2.80;;;;;;;11.06;100.00;99795.72;4963603;28;20513;-72
2023/04/24 00:25:20;;;;;;;3.50;2.90;;;;;;;11.49;100.00;99833.09;4977405;28;20190;-72
2023/04/24 00:27:46;;;;;;;3.43;2.70;;;;;;;10.94;100.00;99779.56;4959504;28;20182;-71
2023/04/24 00:30:11;;;;;;;2.87;2.50;;;;;;;10.98;100.00;99809.44;4979770;28;20222;-72
2023/04/24 00:32:36;;;;;;;3.90;2.10;;;;;;;10.65;100.00;99750.88;4977483;28;20221;-72
2023/04/24 00:35:02;;;;;;;2.80;1.90;;;;;;;10.29;100.00;99694.38;4975026;28;20205;-72
2023/04/24 00:37:28;;;;;;;2.20;1.80;;;;;;;10.65;100.00;99754.38;4975604;28;20273;-72
2023/04/24 00:39:53;;;;;;;1.77;1.20;;;;;;;11.06;100.00;99844.03;4980852;28;20209;-71
2023/04/24 00:42:20;;;;;;;1.90;1.23;;;;;;;10.60;100.00;99755.03;4976660;28;20474;-72
2023/04/24 00:44:46;;;;;;;1.93;1.10;;;;;;;11.12;100.00;99843.13;4980483;28;20535;-72
2023/04/24 00:47:12;;;;;;;1.53;1.43;;;;;;;10.56;100.00;99750.38;4966185;28;20495;-72
2023/04/24 00:49:38;;;;;;;2.13;1.20;;;;;;;10.34;100.00;99720.50;4966841;28;20688;-71
2023/04/24 00:52:07;;;;;;;1.97;1.20;;;;;;;10.51;100.00;99748.34;4984468;28;20428;-71
2023/04/24 00:54:33;;;;;;;2.30;1.40;;;;;;;10.13;100.00;99693.09;4968145;28;20194;-72
2023/04/24 00:56:58;;;;;;;1.90;1.03;;;;;;;10.67;100.00;99775.56;4984984;28;20429;-72
2023/04/24 00:59:23;;;;;;;2.30;1.20;;;;;;;10.31;100.00;99731.69;4966102;28;20193;-71
2023/04/24 01:01:49;;;;;;;1.90;1.50;;;;;;;10.80;100.00;99821.03;4981027;28;20222;-71
2023/04/24 01:04:17;;;;;;;1.73;0.77;;;;;;;9.58;100.00;99636.81;4977100;28;20600;-72
2023/04/24 01:06:44;;;;;;;1.20;1.10;;;;;;;10.56;100.00;99820.88;4964205;28;20218;-72
2023/04/24 01:09:11;;;;;;;1.57;0.60;;;;;;;9.61;100.00;99683.75;4957914;28;20448;-71
2023/04/24 01:11:37;;;;;;;1.10;1.00;;;;;;;10.26;100.00;99826.09;4977764;28;20471;-71
2023/04/24 01:14:03;;;;;;;1.10;0.70;;;;;;;10.15;100.00;99805.38;4962046;28;20951;-71
2023/04/24 01:16:28;;;;;;;1.20;0.70;;;;;;;9.20;100.00;99677.09;4977789;28;20506;-70
2023/04/24 01:18:54;;;;;;;1.57;0.60;;;;;;;10.17;100.00;99828.25;4982058;28;20245;-71
2023/04/24 01:21:21;;;;;;;0.73;0.60;;;;;;;9.44;100.00;99683.50;4990267;28;20224;-71
2023/04/24 01:23:47;;;;;;;0.77;0.60;;;;;;;9.77;100.00;99744.75;4999651;28;20193;-71
2023/04/24 01:26:19;;;;;;;3.40;0.70;;;;;;;10.19;100.00;99836.91;4995407;28;20447;-72
2023/04/24 01:28:45;;;;;;;2.10;1.10;;;;;;;9.35;100.00;99699.00;4979803;28;20490;-72
2023/04/24 01:31:11;;;;;;;1.63;0.70;;;;;;;9.97;100.00;99803.50;5001628;28;20971;-72
2023/04/24 01:33:37;;;;;;;0.83;0.70;;;;;;;9.32;100.00;99693.28;4998987;28;20440;-72
2023/04/24 01:36:02;;;;;;;0.80;0.63;;;;;;;9.88;100.00;99753.94;4982998;28;20717;-72
2023/04/24 01:38:28;;;;;;;1.40;0.80;;;;;;;9.53;100.00;99735.72;4998825;28;20682;-72
2023/04/24 01:40:53;;;;;;;0.90;0.70;;;;;;;9.33;100.00;99700.25;4982913;28;20475;-72
2023/04/24 01:43:20;;;;;;;0.80;0.70;;;;;;;10.23;100.00;99842.63;4993457;28;20221;-72
2023/04/24 01:45:45;;;;;;;0.80;0.67;;;;;;;10.15;100.00;99826.81;4998977;28;20201;-72
2023/04/24 01:48:12;;;;;;;0.80;0.70;;;;;;;9.50;100.00;99741.50;4981847;28;20447;-71
2023/04/24 01:50:38;;;;;;;0.73;0.70;;;;;;;10.08;100.00;99818.88;4994917;28;20205;-72
2023/04/24 01:53:03;;;;;;;0.80;0.80;;;;;;;10.19;100.00;99831.53;4994984;28;20513;-72
2023/04/24 01:55:28;;;;;;;1.70;1.00;;;;;;;9.66;100.00;99818.59;4998227;28;20272;-71
2023/04/24 01:57:55;;;;;;;1.30;0.90;;;;;;;9.85;100.00;99811.44;4991499;28;21196;-71
2023/04/24 02:00:21;;;;;;;2.37;1.43;;;;;;;9.14;100.00;99726.97;4982905;28;20550;-72
2023/04/24 02:02:46;;;;;;;0.90;0.90;;;;;;;10.01;100.00;99836.88;5000438;28;20462;-71
2023/04/24 02:05:12;;;;;;;1.30;1.20;;;;;;;9.64;100.00;99809.16;4986252;28;20177;-72
2023/04/24 02:07:37;;;;;;;1.10;1.00;;;;;;;8.95;100.00;99687.78;5001578;28;20197;-72
2023/04/24 02:10:04;;;;;;;1.50;1.20;;;;;;;9.69;100.00;99828.03;4997147;28;20694;-72
2023/04/24 02:12:29;;;;;;;1.97;1.10;;;;;;;9.76;100.00;99825.31;4998011;28;20593;-71
2023/04/24 02:14:55;;;;;;;2.30;1.20;;;;;;;9.19;100.00;99742.34;4994417;28;20541;-71
2023/04/24 02:17:20;;;;;;;1.47;1.10;;;;;;;9.01;100.00;99700.28;4999204;28;20185;-71
2023/04/24 02:19:46;;;;;;;1.93;1.20;;;;;;;9.39;100.00;99750.22;4998100;28;20663;-71
2023/04/24 02:22:11;;;;;;;1.20;1.10;;;;;;;9.25;100.00;99718.22;4981895;28;20210;-71
2023/04/24 02:24:38;;;;;;;1.37;1.10;;;;;;;9.80;100.00;99832.69;4979246;28;20182;-71
2023/04/24 02:27:03;;;;;;;2.00;1.30;;;;;;;9.92;100.00;99817.56;4979649;28;20194;-72
2023/04/24 02:29:29;;;;;;;2.07;1.00;;;;;;;9.71;100.00;99817.94;4992600;28;20446;-71
2023/04/24 02:31:54;;;;;;;1.97;1.40;;;;;;;8.95;100.00;99691.28;4993292;28;20221;-72
2023/04/24 02:34:20;;;;;;;2.70;1.43;;;;;;;8.75;100.00;99663.84;4997932;28;20822;-72
2023/04/24 02:36:45;;;;;;;1.73;1.47;;;;;;;9.80;100.00;99815.81;4997203;28;20220;-72
2023/04/24 02:39:10;;;;;;;2.20;1.23;;;;;;;9.49;100.00;99755.94;4994868;28;20197;-71
2023/04/24 02:41:36;;;;;;;1.80;1.00;;;;;;;9.38;100.00;99730.69;4984381;28;20643;-72
2023/04/24 02:44:02;;;;;;;2.27;1.50;;;;;;;9.39;100.00;99764.44;4978300;28;20264;-71
2023/04/24 02:46:27;;;;;;;1.30;1.13;;;;;;;9.85;100.00;99814.13;4995585;28;20447;-71
2023/04/24 02:48:53;;;;;;;2.07;1.80;;;;;;;9.14;100.00;99685.97;4996060;28;20204;-72
2023/04/24 02:51:18;;;;;;;6.00;1.60;;;;;;;9.24;100.00;99705.88;4983053;28;20213;-72
2023/04/24 02:53:43;;;;;;;5.63;1.50;;;;;;;9.45;100.00;99695.81;5000132;28;20730;-72
2023/04/24 02:56:12;;;;;;;2.00;1.77;;;;;;;9.29;100.00;99732.00;4998407;28;20212;-71
2023/04/24 02:58:37;;;;;;;1.90;1.60;;;;;;;9.17;100.00;99707.78;4985184;28;20553;-72
2023/04/24 03:01:03;;;;;;;1.93;1.67;;;;;;;9.42;100.00;99726.53;4984903;28;20484;-72
2023/04/24 03:03:28;;;;;;;3.10;1.80;;;;;;;10.00;100.00;99812.97;4993537;28;20292;-72
2023/04/24 03:05:55;;;;;;;1.80;1.70;;;;;;;9.92;100.00;99792.63;4995585;28;20280;-71
2023/04/24 03:08:20;;;;;;;2.10;1.90;;;;;;;9.44;100.00;99731.66;4996297;28;20272;-72
2023/04/24 03:10:46;;;;;;;6.40;1.93;;;;;;;10.05;100.00;99829.22;4981365;28;20464;-72
2023/04/24 03:13:11;;;;;;;1.97;1.73;;;;;;;9.84;100.00;99788.38;4996068;28;20186;-72
2023/04/24 03:15:37;;;;;;;2.40;2.20;;;;;;;9.94;100.00;99828.88;4992930;28;20194;-71
2023/04/24 03:18:02;;;;;;;2.40;2.00;;;;;;;9.59;100.00;99728.66;4995658;28;20189;-71
2023/04/24 03:20:28;;;;;;;2.90;2.30;;;;;;;9.21;100.00;99674.22;4956686;28;1181949;-71
2023/04/24 03:22:53;;;;;;;2.67;2.47;;;;;;;9.88;100.00;99808.31;4994169;28;20628;-71
2023/04/24 03:25:19;;;;;;;2.30;2.10;;;;;;;9.84;100.00;99779.53;4995599;28;20180;-72
2023/04/24 03:27:44;;;;;;;2.40;2.20;;;;;;;9.98;100.00;99799.81;4993390;28;20703;-72
2023/04/24 03:30:10;;;;;;;1.93;1.83;;;;;;;10.05;100.00;99832.69;4978842;28;20215;-72
2023/04/24 03:32:36;;;;;;;2.10;1.90;;;;;;;9.48;100.00;99730.19;4984471;28;20235;-72
2023/04/24 03:35:01;;;;;;;2.40;2.20;;;;;;;9.46;100.00;99743.00;4994163;28;20664;-72
2023/04/24 03:37:27;;;;;;;3.00;2.80;;;;;;;9.11;100.00;99695.25;4993097;28;20181;-71
2023/04/24 03:39:52;;;;;;;4.40;3.63;;;;;;;9.23;100.00;99725.66;4995123;28;20243;-71
2023/04/24 03:42:18;;;;;;;3.30;3.10;;;;;;;9.85;100.00;99802.59;4994963;28;20623;-71
2023/04/24 03:44:43;;;;;;;3.80;3.50;;;;;;;9.73;100.00;99821.22;4996830;28;20231;-72
2023/04/24 03:47:08;;;;;;;4.10;3.70;;;;;;;10.10;100.00;99830.19;4981977;28;20196;-72
2023/04/24 03:49:34;;;;;;;3.53;3.23;;;;;;;9.22;100.00;99724.00;4982790;28;20209;-72
2023/04/24 03:52:00;;;;;;;4.10;3.70;;;;;;;10.00;100.00;99834.41;4993462;28;20193;-72
2023/04/24 03:54:25;;;;;;;3.93;3.63;;;;;;;9.94;100.00;99825.38;4993302;28;20182;-72
2023/04/24 03:56:51;;;;;;;4.20;3.90;;;;;;;9.31;100.00;99756.66;4979220;28;20185;-71
2023/04/24 03:59:16;;;;;;;4.40;4.00;;;;;;;9.82;100.00;99819.91;4996199;28;20193;-72
2023/04/24 04:01:42;;;;;;;4.33;4.00;;;;;;;9.27;100.00;99769.66;4995641;28;20213;-71
2023/04/24 04:04:07;;;;;;;4.50;4.20;;;;;;;9.70;100.00;99806.41;5000109;28;20188;-71
2023/04/24 04:06:33;;;;;;;3.33;3.03;;;;;;;9.83;100.00;99832.25;4985580;28;20220;-72
2023/04/24 04:08:59;;;;;;;4.33;3.17;;;;;;;9.20;100.00;99774.25;4995492;28;20443;-71
2023/04/24 04:11:25;;;;;;;3.23;3.03;;;;;;;9.31;100.00;99783.41;4998061;28;20325;-71
2023/04/24 04:13:50;;;;;;;3.27;2.97;;;;;;;9.78;100.00;99866.94;4993829;28;20268;-72
2023/04/24 04:16:19;;;;;;;3.23;3.03;;;;;;;8.90;100.00;99730.38;4999989;28;20437;-72
2023/04/24 04:18:45;;;;;;;3.77;3.47;;;;;;;9.79;100.00;99878.44;5001518;28;20193;-72
2023/04/24 04:21:10;;;;;;;3.67;2.67;;;;;;;9.76;100.00;99877.03;4978340;28;20516;-71
2023/04/24 04:23:36;;;;;;;3.43;3.13;;;;;;;8.92;100.00;99777.28;4975520;28;20210;-72
2023/04/24 04:26:03;;;;;;;3.23;3.03;;;;;;;8.98;100.00;99763.06;4970561;28;20191;-72
2023/04/24 04:28:31;;;;;;;5.17;3.40;;;;;;;9.68;100.00;99882.63;4972111;28;20193;-71
2023/04/24 04:30:57;;;;;;;3.57;3.20;;;;;;;9.21;100.00;99813.34;4981285;28;20651;-71
2023/04/24 04:33:23;;;;;;;3.67;3.37;;;;;;;8.78;100.00;99757.00;4975701;28;20446;-71
2023/04/24 04:35:49;;;;;;;4.37;4.07;;;;;;;9.69;100.00;99889.63;4982920;28;20434;-71
2023/04/24 04:38:16;;;;;;;4.47;3.90;;;;;;;8.65;100.00;99732.97;4979890;28;20433;-72
2023/04/24 04:40:42;;;;;;;4.43;4.03;;;;;;;9.52;100.00;99859.91;4979475;28;20445;-71
2023/04/24 04:43:08;;;;;;;4.13;3.83;;;;;;;9.14;100.00;99809.03;4991355;28;20527;-71
2023/04/24 04:45:34;;;;;;;4.20;3.90;;;;;;;9.03;100.00;99789.16;4978968;28;20185;-72
2023/04/24 04:48:01;;;;;;;3.83;3.53;;;;;;;8.60;100.00;99731.78;4980354;28;20428;-72
2023/04/24 04:50:27;;;;;;;4.10;3.33;;;;;;;9.62;100.00;99911.09;4977020;28;20532;-71
2023/04/24 04:52:52;;;;;;;3.93;3.63;;;;;;;9.07;100.00;99822.47;4971140;28;20464;-72
2023/04/24 04:55:19;;;;;;;4.20;3.90;;;;;;;9.44;100.00;99865.50;4971875;28;20189;-71
2023/04/24 04:57:48;;;;;;;4.50;4.10;;;;;;;9.51;100.00;99914.44;4972926;28;20201;-71
2023/04/24 05:00:14;;;;;;;4.33;3.93;;;;;;;9.35;100.00;99867.59;4971178;28;20457;-72
2023/04/24 05:02:40;;;;;;;4.83;3.97;;;;;;;9.20;100.00;99838.47;4980326;28;20468;-72
2023/04/24 05:05:07;;;;;;;4.73;4.30;;;;;;;9.30;100.00;99869.28;4977648;28;20310;-72
2023/04/24 05:07:32;;;;;;;4.70;4.30;;;;;;;9.41;100.00;99884.66;4989837;28;20477;-71
2023/04/24 05:09:57;;;;;;;5.60;4.90;;;;;;;8.95;100.00;99829.53;4978394;28;20476;-72
2023/04/24 05:12:23;;;;;;;5.00;4.10;;;;;;;8.94;100.00;99823.38;4980452;28;20205;-72
2023/04/24 05:14:48;;;;;;;4.33;3.93;;;;;;;8.44;100.00;99758.16;4981486;28;20186;-71
2023/04/24 05:17:14;;;;;;;4.23;3.90;;;;;;;9.45;100.00;99929.50;4979879;28;20190;-72
2023/04/24 05:19:40;;;;;;;4.93;4.43;;;;;;;8.59;100.00;99807.66;4983465;28;20723;-72
2023/04/24 05:22:06;;;;;;;4.53;4.13;;;;;;;8.50;100.00;99784.03;5001766;28;20467;-71
2023/04/24 05:24:35;;;;;;;5.20;4.10;;;;;;;8.81;100.00;99842.13;4987942;28;20664;-72
2023/04/24 05:27:02;;;;;;;7.20;4.20;;;;;;;8.67;100.00;99814.59;5001393;28;20428;-71
2023/04/24 05:29:30;;;;;;;5.57;4.37;;;;;;;9.46;100.00;99954.44;5002074;28;20424;-71
2023/04/24 05:31:56;;;;;;;4.80;4.40;;;;;;;9.30;100.00;99938.84;5002382;28;20427;-72
2023/04/24 05:34:21;;;;;;;5.83;4.03;;;;;;;9.18;100.00;99898.56;4987980;28;20429;-72
2023/04/24 05:36:47;;;;;;;5.33;4.43;;;;;;;9.39;100.00;99930.38;4999579;28;20200;-71
2023/04/24 05:39:13;;;;;;;6.20;4.43;;;;;;;9.04;100.00;99873.72;4986347;28;20717;-72
2023/04/24 05:41:38;;;;;;;4.77;4.33;;;;;;;8.79;100.00;99847.69;5000668;28;20460;-71
2023/04/24 05:44:04;;;;;;;4.93;4.53;;;;;;;9.27;100.00;99932.88;5001325;28;20185;-72
2023/04/24 05:46:29;;;;;;;4.70;3.40;;;;;;;8.80;100.00;99843.16;5002057;28;20181;-72
2023/04/24 05:48:55;;;;;;;6.17;4.00;;;;;;;9.55;100.00;99945.13;4983811;28;20264;-72
2023/04/24 05:51:20;;;;;;;4.33;4.03;;;;;;;9.51;100.00;99951.94;5002898;28;20200;-72
2023/04/24 05:53:45;;;;;;;4.43;4.03;;;;;;;9.12;100.00;99920.81;5002254;28;20188;-71
2023/04/24 05:56:11;;;;;;;4.20;3.03;;;;;;;8.80;100.00;99854.69;5000963;28;20181;-71
2023/04/24 05:58:37;;;;;;;4.00;3.70;;;;;;;9.35;100.00;99958.59;4987007;28;20177;-71
2023/04/24 06:01:03;;;;;;;4.70;4.07;;;;;;;9.10;100.00;99945.09;5002008;28;20202;-71
2023/04/24 06:03:28;;;;;;;3.30;3.03;;;;;;;8.00;100.00;99746.34;5002522;28;20521;-71
2023/04/24 06:05:54;;;;;;;4.10;3.80;;;;;;;9.49;100.00;99975.44;4986314;28;20182;-71
2023/04/24 06:08:20;;;;;;;4.03;3.63;;;;;;;9.39;100.00;99964.34;4984606;28;20196;-71
2023/04/24 06:10:45;;;;;;;3.70;3.40;;;;;;;8.77;100.00;99860.44;4988207;28;20204;-71
2023/04/24 06:13:11;;;;;;;4.63;3.47;;;;;;;8.64;100.00;99870.34;5000572;28;20184;-72
2023/04/24 06:15:36;;;;;;;4.10;3.80;;;;;;;9.30;100.00;99965.63;5001650;28;20188;-71
2023/04/24 06:18:02;;;;;;;4.10;3.80;;;;;;;8.80;100.00;99902.81;5002495;28;20675;-71
2023/04/24 06:20:28;;;;;;;3.80;3.50;;;;;;;9.37;100.00;99969.06;5000578;28;20308;-71
2023/04/24 06:22:54;;;;;;;3.37;3.07;;;;;;;9.21;100.00;99959.69;4997484;23;20497;-69
2023/04/24 06:25:19;;;;;;;3.50;3.23;;;;;;;9.39;100.00;99975.03;4989580;28;20182;-70
2023/04/24 06:27:45;;;;;;;5.00;3.43;;;;;;;9.55;100.00;100012.06;4987953;28;20193;-70
2023/04/24 06:30:11;;;;;;;2.90;2.70;;;;;;;9.39;100.00;99986.56;4987539;28;20186;-69
2023/04/24 06:32:36;;;;;;;3.17;2.93;;;;;;;9.46;100.00;100016.81;4987486;28;20634;-69
2023/04/24 06:35:02;;;;;;;3.27;3.03;;;;;;;9.36;100.00;99996.88;4988125;28;20434;-69
2023/04/24 06:37:28;;;;;;;3.17;2.87;;;;;;;9.47;100.00;100014.97;4990202;28;20209;-70
2023/04/24 06:39:54;;;;;;;3.73;3.23;;;;;;;9.42;100.00;100012.09;4987227;28;20280;-69
2023/04/24 06:42:21;;;;;;;2.70;2.50;;;;;;;9.47;100.00;100023.00;4989751;28;20619;-70
2023/04/24 06:44:47;;;;;;;2.20;2.00;;;;;;;9.31;100.00;100013.56;4988570;28;20786;-69
2023/04/24 06:47:15;;;;;;;2.40;2.10;;;;;;;9.35;100.00;100032.72;4989422;28;20425;-69
2023/04/24 06:49:41;;;;;;;4.00;2.30;;;;;;;9.24;100.00;100040.34;4989609;28;20193;-70
2023/04/24 06:52:07;;;;;;;2.20;2.00;;;;;;;8.92;100.00;100001.94;4989450;28;20826;-70
2023/04/24 06:54:32;;;;;;;2.60;2.30;;;;;;;8.80;100.00;99990.22;4990527;28;20222;-69
2023/04/24 06:57:00;;;;;;;2.33;2.13;;;;;;;9.17;100.00;100039.56;4971735;28;20187;-70
2023/04/24 06:59:26;;;;;;;2.27;2.07;;;;;;;9.12;100.00;100017.13;4989953;28;20193;-69
2023/04/24 07:01:51;;;;;;;2.80;2.60;;;;;;;9.25;100.00;100038.50;4988774;28;20841;-69
2023/04/24 07:04:17;;;;;;;2.60;2.40;;;;;;;9.15;100.00;100035.44;4988801;28;20185;-69
2023/04/24 07:06:43;;;;;;;2.93;2.23;;;;;;;9.28;100.00;100027.38;4988977;28;20752;-69
2023/04/24 07:09:09;;;;;;;2.60;2.07;;;;;;;9.69;100.00;100072.56;4988784;28;20437;-69
2023/04/24 07:11:35;;;;;;;2.33;2.03;;;;;;;9.67;100.00;100079.97;4988790;28;20475;-69
2023/04/24 07:14:00;;;;;;;2.70;2.50;;;;;;;9.42;100.00;100037.00;4989739;28;20536;-69
2023/04/24 07:16:26;;;;;;;3.47;3.17;;;;;;;9.36;100.00;100056.59;4989787;28;20425;-70
2023/04/24 07:18:52;;;;;;;2.83;2.63;;;;;;;9.33;100.00;100043.63;4989163;28;20197;-69
2023/04/24 07:21:17;;;;;;;1.90;1.80;;;;;;;9.53;100.00;100080.22;4975059;28;20217;-69
2023/04/24 07:23:42;;;;;;;2.40;2.20;;;;;;;9.39;100.00;100045.47;5006130;28;20471;-70
2023/04/24 07:26:08;;;;;;;2.00;1.90;;;;;;;9.78;100.00;100088.38;5006889;28;20198;-70
2023/04/24 07:28:33;;;;;;;2.37;2.17;;;;;;;9.41;100.00;100043.41;5007943;28;20184;-70
2023/04/24 07:30:59;;;;;;;2.27;1.80;;;;;;;9.80;100.00;100089.81;5007761;28;20213;-69
2023/04/24 07:33:25;;;;;;;2.20;2.00;;;;;;;9.63;100.00;100076.09;5008225;28;20190;-69
2023/04/24 07:35:51;;;;;;;2.00;1.80;;;;;;;9.49;100.00;100082.50;5007731;28;20184;-70
2023/04/24 07:38:20;;;;;;;2.30;2.10;;;;;;;9.85;100.00;100115.97;5007856;28;20434;-69
2023/04/24 07:40:45;;;;;;;2.30;2.10;;;;;;;9.53;100.00;100088.25;5006429;28;20188;-69
2023/04/24 07:43:11;;;;;;;2.47;2.27;;;;;;;9.82;100.00;100117.19;5007672;28;20471;-69
2023/04/24 07:45:37;;;;;;;2.50;2.07;;;;;;;9.97;100.00;100135.69;5005357;28;20346;-69
2023/04/24 07:48:03;;;;;;;2.40;2.20;;;;;;;10.16;100.00;100152.75;5006442;28;20269;-69
2023/04/24 07:50:28;;;;;;;2.03;1.70;;;;;;;9.95;100.00;100129.72;5007230;28;20494;-70
2023/04/24 07:52:54;;;;;;;2.30;2.10;;;;;;;10.20;100.00;100167.34;5006343;28;20481;-69
2023/04/24 07:55:19;;;;;;;2.17;1.97;;;;;;;10.01;100.00;100125.38;5007217;28;20239;-69
2023/04/24 07:57:45;;;;;;;2.90;1.63;;;;;;;10.16;100.00;100182.22;5007875;28;20686;-69
2023/04/24 08:00:11;;;;;;;2.90;2.40;;;;;;;10.08;100.00;100155.66;5006548;28;20673;-69
2023/04/24 08:02:36;;;;;;;3.67;3.20;;;;;;;10.21;100.00;100203.00;5008415;28;20216;-69
2023/04/24 08:05:03;;;;;;;4.33;3.33;;;;;;;10.23;100.00;100204.44;5005241;28;20937;-69
2023/04/24 08:07:29;;;;;;;3.23;2.77;;;;;;;10.28;100.00;100201.16;5005428;28;20182;-70
2023/04/24 08:09:55;;;;;;;3.47;2.60;;;;;;;10.31;100.00;100209.59;5006339;28;20428;-69
2023/04/24 08:12:20;;;;;;;3.80;2.27;;;;;;;10.14;100.00;100182.41;5004887;28;20283;-70
2023/04/24 08:14:45;;;;;;;3.30;2.20;;;;;;;10.48;100.00;100231.41;5006342;28;20416;-69
2023/04/24 08:17:11;;;;;;;2.80;2.00;;;;;;;10.24;100.00;100195.38;5006706;28;20265;-70
2023/04/24 08:19:36;;;;;;;3.17;2.07;;;;;;;10.38;100.00;100225.66;5003980;28;20208;-70
2023/04/24 08:22:03;;;;;;;3.60;2.30;;;;;;;10.26;100.00;100200.53;4995054;28;20214;-70
2023/04/24 08:24:29;;;;;;;2.63;1.70;;;;;;;10.46;100.00;100232.66;4987501;28;20196;-69
2023/04/24 08:26:56;;;;;;;3.67;1.53;;;;;;;10.23;100.00;100200.94;4987760;28;20429;-69
2023/04/24 08:29:22;;;;;;;3.10;1.27;;;;;;;9.68;100.00;100123.63;4986864;28;20722;-69
2023/04/24 08:31:47;;;;;;;2.87;1.40;;;;;;;10.04;100.00;100200.81;4985549;28;20442;-69
2023/04/24 08:34:12;;;;;;;4.27;1.10;;;;;;;10.36;100.00;100238.47;4987433;28;20193;-70
2023/04/24 08:36:40;;;;;;;1.43;1.00;;;;;;;10.07;100.00;100188.84;4986314;28;20994;-69
2023/04/24 08:39:06;;;;;;;1.40;0.90;;;;;;;10.10;100.00;100204.50;4988072;28;20208;-69
2023/04/24 08:41:34;;;;;;;1.87;1.37;;;;;;;10.19;100.00;100244.25;4986017;28;20893;-69
2023/04/24 08:44:02;;;;;;;2.93;1.90;;;;;;;10.26;100.00;100243.41;4986914;28;20425;-69
2023/04/24 08:46:29;;;;;;;2.60;1.37;;;;;;;10.23;100.00;100249.19;4985390;28;20904;-69
2023/04/24 08:48:56;;;;;;;3.43;1.60;;;;;;;10.04;100.00;100251.72;4967691;28;20936;-69
2023/04/24 08:51:23;;;;;;;1.97;1.10;;;;;;;9.78;100.00;100203.53;4967485;28;20448;-70
2023/04/24 08:53:48;;;;;;;2.80;1.30;;;;;;;9.95;100.00;100223.47;4987362;28;20448;-69
2023/04/24 08:56:14;;;;;;;2.50;1.10;;;;;;;9.93;100.00;100217.53;4991979;28;20503;-70
2023/04/24 08:58:40;;;;;;;3.13;1.40;;;;;;;10.07;100.00;100237.09;4991718;28;20200;-70
2023/04/24 09:01:07;;;;;;;2.37;1.20;;;;;;;10.10;100.00;100248.19;4990016;28;20256;-70
2023/04/24 09:03:33;;;;;;;2.50;1.17;;;;;;;9.77;100.00;100197.34;4988091;28;20468;-69
2023/04/24 09:05:59;;;;;;;3.10;1.10;;;;;;;9.35;100.00;100140.59;4992053;28;20531;-70
2023/04/24 09:08:26;;;;;;;5.63;1.30;;;;;;;10.04;100.00;100246.38;4990940;28;20253;-69
2023/04/24 09:10:51;;;;;;;4.37;1.57;;;;;;;10.05;100.00;100273.97;4989061;28;20202;-69
2023/04/24 09:13:19;;;;;;;4.30;1.40;;;;;;;9.97;100.00;100261.59;4989727;28;20983;-70
2023/04/24 09:15:45;;;;;;;3.00;1.83;;;;;;;9.95;100.00;100250.28;4989357;28;20704;-70
2023/04/24 09:18:10;;;;;;;2.97;2.00;;;;;;;9.08;100.00;100130.91;4990876;28;20512;-69
2023/04/24 09:21:08;;;;;;;4.50;2.77;;;;;;;9.95;100.00;100269.03;4972280;28;20178;-69
2023/04/24 09:23:33;;;;;;;5.43;2.27;;;;;;;9.90;100.00;100258.13;4991205;28;20222;-69
2023/04/24 09:26:00;;;;;;;5.20;2.90;;;;;;;10.11;100.00;100279.31;4988438;28;20429;-69
2023/04/24 09:28:30;;;;;;;4.83;2.87;;;;;;;10.00;100.00;100285.31;4989170;28;20821;-70
2023/04/24 09:31:07;;;;;;;5.30;3.00;;;;;;;9.45;100.00;100204.41;4988505;28;20425;-69
2023/04/24 09:33:33;;;;;;;6.57;3.63;;;;;;;9.86;100.00;100291.72;4991524;28;20408;-69
2023/04/24 09:35:59;;;;;;;8.23;3.47;;;;;;;9.87;100.00;100271.94;4988649;28;20432;-70
2023/04/24 09:38:31;;;;;;;4.80;4.20;;;;;;;9.78;100.00;100251.75;4990689;28;20193;-69
2023/04/24 09:41:00;;;;;;;8.30;6.17;;;;;;;9.95;100.00;100287.78;4987790;28;20364;-69
2023/04/24 09:43:26;;;;;;;10.63;6.30;;;;;;;9.94;100.00;100296.84;4987667;28;20494;-70
2023/04/24 09:45:56;;;;;;;12.83;8.83;;;;;;;9.98;100.00;100295.44;4988157;28;20429;-69
2023/04/24 09:48:31;;;;;;;11.97;8.40;;;;;;;9.60;100.00;100266.59;4972934;28;20425;-70
2023/04/24 09:50:56;;;;;;;12.67;9.47;;;;;;;9.77;100.00;100293.78;4989538;28;20463;-69
2023/04/24 09:53:26;;;;;;;12.70;9.20;;;;;;;9.94;100.00;100303.03;4988391;28;20940;-70
2023/04/24 09:55:52;;;;;;;12.20;10.23;;;;;;;9.49;100.00;100257.34;4987025;28;20221;-70
2023/04/24 09:58:24;;;;;;;12.23;10.53;;;;;;;9.88;100.00;100314.59;4988956;28;20433;-70
2023/04/24 10:00:52;;;;;;;18.50;11.83;;;;;;;9.69;100.00;100308.22;4984889;28;20436;-69
2023/04/24 10:03:18;;;;;;;15.00;9.80;;;;;;;9.68;100.00;100313.75;4989599;28;20481;-70
2023/04/24 10:05:46;;;;;;;16.07;10.40;;;;;;;9.85;100.00;100332.94;4969277;28;20491;-69
2023/04/24 10:08:13;;;;;;;16.67;9.93;;;;;;;9.68;100.00;100329.81;4985639;28;20196;-69
2023/04/24 10:10:40;;;;;;;19.57;10.87;;;;;;;8.94;100.00;100243.28;4988316;28;20524;-69
2023/04/24 10:13:07;;;;;;;17.10;10.37;;;;;;;9.50;100.00;100309.03;4989204;28;20425;-69
2023/04/24 10:15:33;;;;;;;12.77;9.37;;;;;;;9.58;100.00;100343.63;4987275;28;20439;-69
2023/04/24 10:17:59;;;;;;;15.70;8.43;;;;;;;9.53;100.00;100351.44;4987684;28;20590;-69
2023/04/24 10:20:27;;;;;;;13.40;8.50;;;;;;;9.53;100.00;100355.97;4990018;28;20425;-69
2023/04/24 10:22:53;;;;;;;12.00;6.90;;;;;;;9.51;100.00;100324.03;5002836;28;20221;-70
2023/04/24 10:25:26;;;;;;;10.07;6.97;;;;;;;9.73;100.00;100343.44;5003941;28;20444;-69
2023/04/24 10:27:52;;;;;;;14.90;8.27;;;;;;;9.46;100.00;100348.78;4998786;28;20444;-70
2023/04/24 10:30:19;;;;;;;9.33;8.20;;;;;;;9.18;100.00;100278.50;5001855;28;20447;-69
2023/04/24 10:32:45;;;;;;;9.93;6.80;;;;;;;9.54;100.00;100344.22;5005025;28;20829;-69
2023/04/24 10:35:17;;;;;;;12.37;6.30;;;;;;;9.44;100.00;100348.13;5003635;28;20447;-70
2023/04/24 10:38:05;;;;;;;11.20;6.00;;;;;;;9.53;100.00;100345.28;5001362;28;20506;-69
2023/04/24 10:40:33;;;;;;;8.20;5.07;;;;;;;8.87;100.00;100260.31;4999680;28;20959;-70
2023/04/24 10:42:59;;;;;;;7.30;4.63;;;;;;;8.91;100.00;100245.50;5001913;28;20578;-70
2023/04/24 10:45:25;;;;;;;7.20;4.90;;;;;;;9.44;100.00;100291.91;5013675;28;20470;-70
2023/04/24 10:48:06;;;;;;;8.03;4.47;;;;;;;9.63;100.00;100308.19;5001599;28;20439;-70
2023/04/24 10:50:53;;;;;;;9.57;5.00;;;;;;;9.56;100.00;100286.78;5006380;28;20669;-69
2023/04/24 10:53:24;;;;;;;7.73;4.47;;;;;;;9.59;100.00;100307.78;5002951;28;20484;-69
2023/04/24 10:56:13;;;;;;;7.63;4.13;;;;;;;9.66;100.00;100281.00;5005664;28;20925;-69
2023/04/24 10:58:39;;;;;;;10.17;5.20;;;;;;;9.54;100.00;100298.72;5004106;28;20964;-69
2023/04/24 11:01:05;;;;;;;8.90;4.33;;;;;;;9.55;100.00;100305.75;5003644;28;20477;-70
2023/04/24 11:03:34;;;;;;;13.07;5.63;;;;;;;9.41;100.00;100288.84;5002855;28;20476;-70
2023/04/24 11:06:06;;;;;;;12.43;4.13;;;;;;;9.39;100.00;100314.97;4999887;28;20471;-71
2023/04/24 11:08:44;;;;;;;13.37;5.30;;;;;;;9.22;100.00;100328.72;5003474;28;20451;-71
2023/04/24 11:11:11;;;;;;;8.73;4.00;;;;;;;9.22;100.00;100328.72;5006993;28;20459;-71
2023/04/24 11:13:58;;;;;;;14.03;5.20;;;;;;;9.11;100.00;100331.97;5007769;28;20425;-70
2023/04/24 11:16:23;;;;;;;7.77;5.00;;;;;;;8.95;100.00;100343.88;5005425;28;20485;-71
2023/04/24 11:18:59;;;;;;;19.87;4.77;;;;;;;9.08;100.00;100348.44;5006372;28;20435;-71
2023/04/24 11:21:26;;;;;;;11.33;4.70;;;;;;;9.00;100.00;100360.16;5002998;28;20214;-71
2023/04/24 11:23:51;;;;;;;9.87;4.30;;;;;;;8.81;100.00;100304.75;4989477;28;20810;-70